Time;durP1;ratioP1;P1;durP2;ratioP2;P2;SDS_P1;SDS_P2;PMS_P1;PMS_P2;Temp;Humidity;BMP_temperature;BMP_pressure;BME280_temperature;BME280_humidity;BME280_pressure;Samples;Min_cycle;Max_cycle;Signal;HPM_P1;HPM_P2
2023/03/15 00:01:05;;;;;;;14.52;2.30;;;13.00;99.90;;;;;;5071822;28;20032;-79
2023/03/15 00:03:36;;;;;;;18.13;2.75;;;13.00;99.90;;;;;;5072152;28;20112;-78
2023/03/15 00:06:03;;;;;;;15.15;2.13;;;13.10;99.90;;;;;;5072405;28;20077;-79
2023/03/15 00:08:32;;;;;;;30.38;3.03;;;13.10;99.90;;;;;;5071662;28;20035;-81
2023/03/15 00:10:58;;;;;;;17.05;2.42;;;13.10;99.90;;;;;;5071832;28;20021;-79
2023/03/15 00:13:24;;;;;;;32.35;4.72;;;13.00;99.90;;;;;;5071467;28;20032;-79
2023/03/15 00:15:55;;;;;;;20.27;2.90;;;13.00;99.90;;;;;;5071495;28;20089;-78
2023/03/15 00:18:21;;;;;;;19.13;3.13;;;13.00;99.90;;;;;;5054011;28;20442;-78
2023/03/15 00:20:49;;;;;;;17.33;2.88;;;13.00;99.90;;;;;;5071594;28;20028;-79
2023/03/15 00:23:15;;;;;;;25.85;3.88;;;12.80;99.90;;;;;;5071613;28;20522;-79
2023/03/15 00:25:46;;;;;;;18.35;2.90;;;12.80;99.90;;;;;;5072121;28;20111;-77
2023/03/15 00:28:15;;;;;;;21.25;3.08;;;12.80;99.90;;;;;;5057220;28;20054;-80
2023/03/15 00:30:42;;;;;;;30.00;4.32;;;12.70;99.90;;;;;;5078612;28;20476;-79
2023/03/15 00:33:12;;;;;;;20.70;2.90;;;12.70;99.90;;;;;;5053548;28;20053;-77
2023/03/15 00:35:40;;;;;;;18.98;2.90;;;12.80;99.90;;;;;;5072057;28;20373;-77
2023/03/15 00:38:07;;;;;;;20.40;3.13;;;12.80;99.90;;;;;;5053281;28;20517;-79
2023/03/15 00:40:36;;;;;;;19.02;3.05;;;12.80;99.90;;;;;;5072385;28;20337;-78
2023/03/15 00:43:03;;;;;;;29.48;4.72;;;12.70;99.90;;;;;;5036879;28;20130;-78
2023/03/15 00:45:29;;;;;;;21.08;3.15;;;12.60;99.90;;;;;;5071816;28;20052;-79
2023/03/15 00:47:55;;;;;;;28.47;4.13;;;12.60;99.90;;;;;;5071526;28;20065;-78
2023/03/15 00:50:23;;;;;;;24.92;3.92;;;12.50;99.90;;;;;;5071636;28;20025;-78
2023/03/15 00:52:49;;;;;;;20.73;3.05;;;12.50;99.90;;;;;;5071227;28;20036;-79
2023/03/15 00:55:18;;;;;;;20.63;3.28;;;12.60;99.90;;;;;;5086123;28;20369;-81
2023/03/15 00:57:46;;;;;;;17.38;3.22;;;12.50;99.90;;;;;;5091455;28;20077;-79
2023/03/15 01:00:19;;;;;;;19.27;2.92;;;12.50;99.90;;;;;;5073281;28;20035;-79
2023/03/15 01:02:49;;;;;;;20.88;2.92;;;12.60;99.90;;;;;;5091187;28;20054;-80
2023/03/15 01:05:17;;;;;;;22.98;2.95;;;12.50;99.90;;;;;;5072446;28;20058;-79
2023/03/15 01:07:46;;;;;;;20.38;3.03;;;12.50;99.90;;;;;;5078439;28;20025;-79
2023/03/15 01:10:23;;;;;;;18.02;2.75;;;12.50;99.90;;;;;;5071241;28;20028;-79
2023/03/15 01:12:50;;;;;;;20.85;2.95;;;12.60;99.90;;;;;;5070692;28;20059;-79
2023/03/15 01:15:17;;;;;;;23.10;3.13;;;12.50;99.90;;;;;;5071406;28;20090;-78
2023/03/15 01:17:44;;;;;;;;;;;12.60;99.90;;;;;;5071256;28;20100;-78
2023/03/15 01:20:13;;;;;;;22.88;2.50;;;12.60;99.90;;;;;;5070698;28;19983;-79
2023/03/15 01:22:40;;;;;;;25.75;3.50;;;12.60;99.90;;;;;;5071139;28;20052;-79
2023/03/15 01:25:09;;;;;;;23.02;3.00;;;12.50;99.90;;;;;;5070746;28;20031;-78
2023/03/15 01:27:39;;;;;;;24.38;2.90;;;12.60;99.90;;;;;;5070643;28;20066;-78
2023/03/15 01:30:11;;;;;;;12.95;1.83;;;12.60;99.90;;;;;;5070538;28;20020;-78
2023/03/15 01:32:38;;;;;;;19.70;2.72;;;12.50;99.90;;;;;;5070707;28;20040;-79
2023/03/15 01:35:08;;;;;;;18.02;2.95;;;12.50;99.90;;;;;;5071406;28;20056;-78
2023/03/15 01:37:34;;;;;;;18.15;2.83;;;12.50;99.90;;;;;;5070829;28;20425;-79
2023/03/15 01:40:05;;;;;;;22.08;2.78;;;12.50;99.90;;;;;;5074080;28;20461;-78
2023/03/15 01:42:31;;;;;;;22.15;2.63;;;12.60;99.90;;;;;;5073587;28;20220;-78
2023/03/15 01:44:59;;;;;;;14.85;2.30;;;12.60;99.90;;;;;;5074312;28;20074;-78
2023/03/15 01:47:27;;;;;;;24.98;2.72;;;12.60;99.90;;;;;;5074274;28;20055;-79
2023/03/15 01:50:10;;;;;;;18.42;4.00;;;12.50;99.90;;;;;;5074635;28;20116;-78
2023/03/15 01:52:41;;;;;;;23.45;3.13;;;12.50;99.90;;;;;;5074021;28;20044;-78
2023/03/15 01:55:14;;;;;;;19.88;2.60;;;12.50;99.90;;;;;;5056231;28;20040;-79
2023/03/15 01:57:54;;;;;;;23.67;2.95;;;12.40;99.90;;;;;;5074591;28;20025;-78
2023/03/15 02:00:22;;;;;;;18.95;2.83;;;12.50;99.90;;;;;;5055569;28;20036;-79
2023/03/15 02:03:14;;;;;;;15.32;2.13;;;12.50;99.90;;;;;;5074510;28;20062;-78
2023/03/15 02:05:53;;;;;;;26.50;3.35;;;12.50;99.90;;;;;;5063491;28;20036;-78
2023/03/15 02:08:26;;;;;;;26.80;2.92;;;12.50;99.90;;;;;;5074309;28;20066;-80
2023/03/15 02:10:57;;;;;;;32.90;2.95;;;12.50;99.90;;;;;;5072922;28;20041;-79
2023/03/15 02:13:29;;;;;;;27.60;3.33;;;12.50;99.90;;;;;;5074091;28;20028;-79
2023/03/15 02:16:00;;;;;;;18.55;3.50;;;12.50;99.90;;;;;;5073966;28;20040;-79
2023/03/15 02:18:26;;;;;;;18.80;2.45;;;12.50;99.90;;;;;;5073900;28;20039;-79
2023/03/15 02:21:15;;;;;;;17.70;2.63;;;12.40;99.90;;;;;;5074130;28;20103;-78
2023/03/15 02:23:43;;;;;;;23.02;3.70;;;12.50;99.90;;;;;;5074147;28;20196;-79
2023/03/15 02:26:44;;;;;;;19.08;2.72;;;12.50;99.90;;;;;;5073634;28;20024;-79
2023/03/15 02:29:11;;;;;;;23.85;2.85;;;12.40;99.90;;;;;;5074176;28;20025;-78
2023/03/15 02:31:38;;;;;;;13.82;2.20;;;12.40;99.90;;;;;;5056258;28;20115;-79
2023/03/15 02:34:08;;;;;;;21.65;3.22;;;12.40;99.90;;;;;;5073405;28;20496;-78
2023/03/15 02:36:36;;;;;;;12.35;1.95;;;12.40;99.90;;;;;;5055893;28;20115;-79
2023/03/15 02:39:16;;;;;;;19.35;2.60;;;12.40;99.90;;;;;;5073386;28;20052;-78
2023/03/15 02:41:52;;;;;;;21.20;2.58;;;12.40;99.90;;;;;;5072946;28;20162;-78
2023/03/15 02:44:34;;;;;;;21.52;3.70;;;12.40;99.90;;;;;;5073677;28;20027;-80
2023/03/15 02:47:18;;;;;;;17.60;2.53;;;12.40;99.90;;;;;;5073684;28;20021;-78
2023/03/15 02:49:50;;;;;;;19.85;3.10;;;12.40;99.90;;;;;;5072994;28;20078;-78
2023/03/15 02:52:17;;;;;;;21.35;2.70;;;12.50;99.90;;;;;;5072986;28;20460;-78
2023/03/15 02:54:43;;;;;;;19.63;3.20;;;12.50;99.90;;;;;;5073202;28;20146;-78
2023/03/15 02:57:10;;;;;;;19.87;4.10;;;12.50;99.90;;;;;;5088208;28;20299;-79
2023/03/15 02:59:40;;;;;;;16.75;2.97;;;12.40;99.90;;;;;;5093686;28;20196;-78
2023/03/15 03:02:10;;;;;;;14.77;2.55;;;12.40;99.90;;;;;;5093085;28;20146;-78
2023/03/15 03:04:40;;;;;;;20.70;2.78;;;12.40;99.90;;;;;;5092247;28;20119;-79
2023/03/15 03:07:08;;;;;;;18.38;2.35;;;12.50;99.90;;;;;;5093100;28;20349;-78
2023/03/15 03:09:38;;;;;;;23.05;2.97;;;12.50;99.90;;;;;;5092955;28;20035;-78
2023/03/15 03:12:10;;;;;;;23.30;2.95;;;12.40;99.90;;;;;;5092422;28;20121;-78
2023/03/15 03:14:37;;;;;;;23.25;3.65;;;12.40;99.90;;;;;;5093284;28;20028;-79
2023/03/15 03:17:04;;;;;;;19.02;2.67;;;12.40;99.90;;;;;;5074733;28;20150;-78
2023/03/15 03:19:31;;;;;;;22.50;3.27;;;12.40;99.90;;;;;;5092906;28;20028;-79
2023/03/15 03:21:58;;;;;;;20.77;3.10;;;12.40;99.90;;;;;;5105729;28;20024;-79
2023/03/15 03:24:25;;;;;;;21.05;2.72;;;12.40;99.90;;;;;;5092980;28;20020;-79
2023/03/15 03:26:56;;;;;;;28.50;3.40;;;12.40;99.90;;;;;;5092900;28;20028;-77
2023/03/15 03:29:23;;;;;;;24.67;3.63;;;12.40;99.90;;;;;;5092373;28;20028;-79
2023/03/15 03:31:51;;;;;;;21.75;3.13;;;12.30;99.90;;;;;;5074470;28;20028;-79
2023/03/15 03:34:18;;;;;;;18.48;2.78;;;12.40;99.90;;;;;;5092387;28;20043;-78
2023/03/15 03:36:47;;;;;;;21.05;3.03;;;12.40;99.90;;;;;;5068809;28;20041;-78
2023/03/15 03:39:14;;;;;;;20.85;2.47;;;12.30;99.90;;;;;;5071844;28;20026;-79
2023/03/15 03:41:40;;;;;;;21.83;2.55;;;12.30;99.90;;;;;;5071607;28;20016;-78
2023/03/15 03:44:06;;;;;;;23.97;4.40;;;12.30;99.90;;;;;;5073471;28;20497;-78
2023/03/15 03:46:32;;;;;;;27.65;3.42;;;12.30;99.90;;;;;;5092158;28;20024;-78
2023/03/15 03:49:01;;;;;;;25.73;4.00;;;12.30;99.90;;;;;;5092136;28;20055;-79
2023/03/15 03:51:33;;;;;;;16.25;2.63;;;12.30;99.90;;;;;;5091409;28;20557;-78
2023/03/15 03:54:23;;;;;;;31.92;3.00;;;12.30;99.90;;;;;;5091802;28;20040;-79
2023/03/15 03:56:50;;;;;;;15.43;2.70;;;12.40;99.90;;;;;;5091503;28;20155;-79
2023/03/15 03:59:17;;;;;;;22.92;2.65;;;12.40;99.90;;;;;;5073038;28;20051;-80
2023/03/15 04:01:43;;;;;;;18.40;2.72;;;12.40;99.90;;;;;;5091076;28;20024;-79
2023/03/15 04:04:14;;;;;;;23.77;3.20;;;12.40;99.90;;;;;;5074038;28;20043;-79
2023/03/15 04:06:45;;;;;;;27.52;2.85;;;12.50;99.90;;;;;;5088210;28;20031;-78
2023/03/15 04:09:15;;;;;;;18.95;3.42;;;12.50;99.90;;;;;;5072501;28;20028;-79
2023/03/15 04:11:48;;;;;;;25.83;3.22;;;12.50;99.90;;;;;;5072301;28;20028;-79
2023/03/15 04:14:14;;;;;;;30.42;4.18;;;12.50;99.90;;;;;;5071977;28;20040;-79
2023/03/15 04:16:41;;;;;;;25.95;4.00;;;12.50;99.90;;;;;;5071913;28;20052;-79
2023/03/15 04:19:08;;;;;;;18.38;2.90;;;12.60;99.90;;;;;;5072022;28;20028;-79
2023/03/15 04:21:38;;;;;;;20.13;3.03;;;12.60;99.90;;;;;;5071901;28;20023;-78
2023/03/15 04:24:08;;;;;;;25.60;3.47;;;12.60;99.90;;;;;;5072087;28;20506;-79
2023/03/15 04:26:36;;;;;;;20.65;3.47;;;12.60;99.90;;;;;;5071941;28;20086;-79
2023/03/15 04:29:04;;;;;;;17.10;2.60;;;12.50;99.90;;;;;;5072647;28;20071;-78
2023/03/15 04:31:36;;;;;;;24.38;3.20;;;12.60;99.90;;;;;;5072058;28;20036;-78
2023/03/15 04:34:03;;;;;;;22.50;3.35;;;12.60;99.90;;;;;;5072162;28;20041;-79
2023/03/15 04:36:29;;;;;;;;;;;12.60;99.90;;;;;;5070439;28;20373;-79
2023/03/15 04:39:04;;;;;;;26.08;3.67;;;12.70;99.90;;;;;;5052038;28;19912;-79
2023/03/15 04:41:33;;;;;;;;;;;12.60;99.90;;;;;;5053038;28;20032;-78
2023/03/15 04:44:02;;;;;;;28.73;3.45;;;12.60;99.90;;;;;;5060836;28;19989;-79
2023/03/15 04:46:31;;;;;;;29.48;2.78;;;12.60;99.90;;;;;;5073163;28;20102;-79
2023/03/15 04:48:58;;;;;;;29.80;3.03;;;12.60;99.90;;;;;;5092622;28;20020;-78
2023/03/15 04:51:24;;;;;;;28.98;4.38;;;12.60;99.90;;;;;;5073965;28;20381;-79
2023/03/15 04:53:50;;;;;;;22.77;3.70;;;12.60;99.90;;;;;;5091980;28;20085;-79
2023/03/15 04:56:17;;;;;;;29.90;3.87;;;12.60;99.90;;;;;;5092020;28;20099;-79
2023/03/15 04:58:43;;;;;;;27.23;4.13;;;12.60;99.90;;;;;;5092568;28;20471;-79
2023/03/15 05:01:10;;;;;;;26.27;3.87;;;12.60;99.90;;;;;;5092175;28;20072;-79
2023/03/15 05:03:36;;;;;;;;;;;12.60;99.90;;;;;;5092557;28;20069;-79
2023/03/15 05:06:06;;;;;;;;;;;12.60;99.90;;;;;;5092613;28;20268;-78
2023/03/15 05:08:36;;;;;;;17.75;2.65;;;12.60;99.90;;;;;;5072418;28;19919;-77
2023/03/15 05:11:06;;;;;;;25.25;3.40;;;12.60;99.90;;;;;;5085723;28;20060;-79
2023/03/15 05:13:32;;;;;;;26.48;3.08;;;12.60;99.90;;;;;;5093845;28;20123;-78
2023/03/15 05:15:58;;;;;;;29.42;3.08;;;12.60;99.90;;;;;;5096659;28;20106;-79
2023/03/15 05:18:25;;;;;;;27.70;3.30;;;12.60;99.90;;;;;;5096389;28;20508;-76
2023/03/15 05:20:54;;;;;;;29.45;3.40;;;12.60;99.90;;;;;;5078492;28;20032;-79
2023/03/15 05:23:27;;;;;;;27.95;4.40;;;12.50;99.90;;;;;;5096564;28;20016;-79
2023/03/15 05:26:03;;;;;;;24.67;2.97;;;12.50;99.90;;;;;;5096374;28;20063;-76
2023/03/15 05:28:31;;;;;;;22.35;2.83;;;12.50;99.90;;;;;;5096416;28;20077;-78
2023/03/15 05:31:01;;;;;;;28.95;3.10;;;12.50;99.90;;;;;;5095778;28;20336;-79
2023/03/15 05:33:31;;;;;;;20.63;3.70;;;12.50;99.90;;;;;;5077392;28;20028;-79
2023/03/15 05:35:59;;;;;;;26.70;2.97;;;12.50;99.90;;;;;;5095933;28;20035;-78
2023/03/15 05:38:26;;;;;;;21.17;2.85;;;12.60;99.90;;;;;;5059274;28;20033;-78
2023/03/15 05:40:53;;;;;;;18.75;2.67;;;12.60;99.90;;;;;;5075404;28;20029;-78
2023/03/15 05:43:20;;;;;;;26.67;3.17;;;12.70;99.90;;;;;;5075443;28;20024;-77
2023/03/15 05:45:47;;;;;;;18.75;2.85;;;12.60;99.90;;;;;;5075484;28;20029;-78
2023/03/15 05:48:15;;;;;;;26.35;3.88;;;12.70;99.90;;;;;;5075232;28;20480;-79
2023/03/15 05:50:41;;;;;;;26.13;3.30;;;12.70;99.90;;;;;;5076117;28;20370;-79
2023/03/15 05:53:08;;;;;;;20.77;3.00;;;12.70;99.90;;;;;;5056199;28;20041;-79
2023/03/15 05:55:35;;;;;;;;;;;12.70;99.90;;;;;;5036373;28;20056;-79
2023/03/15 05:58:02;;;;;;;26.65;3.28;;;12.80;99.90;;;;;;5054345;28;19904;-79
2023/03/15 06:00:30;;;;;;;23.37;3.43;;;12.90;99.90;;;;;;5061234;28;20128;-80
2023/03/15 06:02:56;;;;;;;23.83;3.33;;;13.00;99.90;;;;;;5074206;28;20267;-81
2023/03/15 06:05:23;;;;;;;20.50;3.13;;;13.50;99.90;;;;;;5043166;28;20078;-82
2023/03/15 06:07:50;;;;;;;21.52;3.08;;;14.10;99.90;;;;;;5036700;28;20071;-82
2023/03/15 06:10:19;;;;;;;18.65;3.55;;;14.50;99.90;;;;;;5057123;28;20077;-81
2023/03/15 06:12:47;;;;;;;11.68;2.33;;;14.70;99.90;;;;;;5057731;28;20029;-82
2023/03/15 06:15:13;;;;;;;24.00;3.58;;;14.70;99.90;;;;;;5054533;28;20135;-81
2023/03/15 06:17:40;;;;;;;14.30;2.70;;;14.60;99.90;;;;;;5063650;28;20028;-83
2023/03/15 06:20:06;;;;;;;;;;;15.20;99.90;;;;;;5057542;28;20055;-82
2023/03/15 06:22:32;;;;;;;16.90;2.90;;;15.90;99.90;;;;;;5075669;28;19924;-84
2023/03/15 06:24:59;;;;;;;18.97;3.07;;;16.70;99.90;;;;;;5056386;28;20468;-84
2023/03/15 06:27:26;;;;;;;22.48;3.25;;;16.90;99.90;;;;;;5056367;28;20330;-82
2023/03/15 06:29:52;;;;;;;;;;;16.60;99.90;;;;;;5074854;28;20440;-76
2023/03/15 06:32:18;;;;;;;23.48;3.50;;;15.80;99.90;;;;;;5074137;28;19911;-80
2023/03/15 06:34:44;;;;;;;26.65;3.35;;;15.40;99.90;;;;;;5074063;28;20079;-77
2023/03/15 06:37:16;;;;;;;23.83;3.23;;;14.90;99.90;;;;;;5066474;28;20484;-83
2023/03/15 06:39:44;;;;;;;23.67;4.38;;;14.80;99.90;;;;;;5036369;28;20141;-82
2023/03/15 06:42:12;;;;;;;22.70;3.30;;;15.30;99.90;;;;;;5054042;28;20492;-82
2023/03/15 06:44:40;;;;;;;16.23;3.05;;;16.00;99.90;;;;;;5037043;28;20049;-82
2023/03/15 06:47:10;;;;;;;24.13;3.70;;;16.80;99.90;;;;;;5054468;28;20044;-85
2023/03/15 06:49:37;;;;;;;15.23;2.75;;;17.40;99.90;;;;;;5055530;28;20087;-83
2023/03/15 06:52:06;;;;;;;20.40;3.50;;;18.10;99.90;;;;;;5047589;28;20052;-79
2023/03/15 06:54:33;;;;;;;23.67;3.40;;;18.70;99.90;;;;;;5069528;28;20059;-83
2023/03/15 06:57:01;;;;;;;19.00;3.20;;;18.40;99.90;;;;;;5052158;28;20433;-83
2023/03/15 06:59:27;;;;;;;19.63;3.40;;;17.40;99.90;;;;;;5073476;28;20051;-83
2023/03/15 07:01:55;;;;;;;20.80;3.50;;;16.60;99.90;;;;;;5073484;28;20535;-81
2023/03/15 07:04:21;;;;;;;21.35;3.10;;;15.90;99.90;;;;;;5073801;28;20029;-82
2023/03/15 07:06:48;;;;;;;22.88;3.25;;;16.30;99.90;;;;;;5074684;28;20498;-84
2023/03/15 07:09:21;;;;;;;19.98;3.03;;;17.60;99.90;;;;;;5074880;28;20065;-83
2023/03/15 07:11:50;;;;;;;19.90;2.88;;;17.60;99.90;;;;;;5039830;28;20088;-85
2023/03/15 07:14:22;;;;;;;19.30;4.07;;;17.70;99.90;;;;;;5075620;28;20032;-85
2023/03/15 07:16:48;;;;;;;31.00;2.97;;;18.40;99.90;;;;;;5056437;28;20515;-84
2023/03/15 07:19:15;;;;;;;20.65;3.00;;;19.30;99.90;;;;;;5074360;28;20409;-84
2023/03/15 07:21:47;;;;;;;20.42;3.28;;;19.20;99.90;;;;;;5073937;28;20071;-84
2023/03/15 07:24:14;;;;;;;26.73;3.92;;;19.40;99.90;;;;;;5074587;28;20402;-84
2023/03/15 07:26:40;;;;;;;20.88;3.50;;;19.10;99.90;;;;;;5074431;28;20035;-85
2023/03/15 07:29:32;;;;;;;23.90;3.55;;;19.30;99.90;;;;;;5074106;28;20052;-86
2023/03/15 07:32:18;;;;;;;27.65;4.20;;;19.00;99.90;;;;;;5074610;28;20013;-84
2023/03/15 07:34:44;;;;;;;46.72;5.03;;;19.10;99.90;;;;;;5074877;28;20032;-83
2023/03/15 07:37:11;;;;;;;22.08;3.80;;;18.40;99.90;;;;;;5054819;28;20525;-80
2023/03/15 07:39:40;;;;;;;15.65;3.40;;;18.10;99.90;;;;;;5075103;28;20035;-82
2023/03/15 07:42:17;;;;;;;21.23;3.10;;;17.70;99.90;;;;;;5074092;28;20456;-83
2023/03/15 07:44:43;;;;;;;23.10;3.13;;;16.90;99.90;;;;;;5078930;28;20053;-83
2023/03/15 07:47:16;;;;;;;21.83;3.63;;;16.40;99.90;;;;;;5074787;28;20056;-83
2023/03/15 07:49:46;;;;;;;27.00;3.63;;;16.30;99.90;;;;;;5074531;28;20052;-78
2023/03/15 07:52:14;;;;;;;18.15;2.53;;;16.70;99.90;;;;;;5055230;28;20434;-84
2023/03/15 07:55:10;;;;;;;20.27;3.47;;;17.20;99.90;;;;;;5072973;28;20044;-84
2023/03/15 07:57:36;;;;;;;25.40;3.28;;;17.20;99.90;;;;;;5040696;28;20048;-85
2023/03/15 08:00:13;;;;;;;22.48;3.67;;;16.80;99.90;;;;;;5073096;28;20472;-79
2023/03/15 08:02:43;;;;;;;19.25;2.80;;;16.30;99.90;;;;;;5073170;28;20028;-82
2023/03/15 08:05:14;;;;;;;33.50;3.80;;;15.90;99.90;;;;;;5073241;28;20103;-80
2023/03/15 08:07:48;;;;;;;16.42;3.03;;;15.50;99.90;;;;;;5073789;28;20096;-80
2023/03/15 08:10:18;;;;;;;14.05;2.20;;;15.90;99.90;;;;;;5073674;28;20052;-85
2023/03/15 08:12:47;;;;;;;21.88;3.88;;;16.50;99.90;;;;;;5073509;28;20021;-86
2023/03/15 08:15:17;;;;;;;16.23;2.80;;;16.70;99.90;;;;;;5074624;28;20174;-84
2023/03/15 08:18:10;;;;;;;13.80;2.67;;;16.30;99.90;;;;;;5073976;28;20052;-85
2023/03/15 08:20:41;;;;;;;34.13;3.33;;;16.60;99.90;;;;;;5049021;28;20041;-83
2023/03/15 08:23:15;;;;;;;21.63;2.50;;;16.70;99.90;;;;;;5058022;28;20039;-83
2023/03/15 08:25:44;;;;;;;18.83;3.17;;;16.80;99.90;;;;;;5074725;28;20025;-83
2023/03/15 08:28:10;;;;;;;14.07;2.83;;;17.00;99.90;;;;;;5073904;28;20066;-82
2023/03/15 08:30:37;;;;;;;19.70;2.80;;;17.10;99.90;;;;;;5075276;28;20025;-88
2023/03/15 08:33:03;;;;;;;19.92;2.78;;;17.30;99.90;;;;;;5074648;28;20032;-84
2023/03/15 08:35:36;;;;;;;12.25;2.88;;;17.20;99.90;;;;;;5055941;28;20082;-83
2023/03/15 08:38:09;;;;;;;14.82;2.88;;;17.40;99.90;;;;;;5072914;28;20033;-82
2023/03/15 08:40:35;;;;;;;17.40;2.85;;;17.60;99.90;;;;;;5073852;28;20036;-78
2023/03/15 08:43:10;;;;;;;14.57;2.33;;;17.70;99.90;;;;;;5072447;28;20495;-83
2023/03/15 08:45:40;;;;;;;14.20;2.72;;;17.60;99.90;;;;;;5072408;28;20388;-82
2023/03/15 08:48:13;;;;;;;15.45;3.30;;;18.20;99.90;;;;;;5074585;28;20021;-83
2023/03/15 08:50:45;;;;;;;18.25;3.95;;;18.20;99.90;;;;;;5060047;28;20383;-82
2023/03/15 08:53:13;;;;;;;14.68;3.10;;;18.30;99.90;;;;;;5076371;28;20110;-81
2023/03/15 08:55:39;;;;;;;26.20;3.70;;;18.00;99.90;;;;;;5076507;28;20142;-83
2023/03/15 08:58:05;;;;;;;20.63;3.03;;;17.60;99.90;;;;;;5076975;28;20498;-82
2023/03/15 09:00:32;;;;;;;23.05;3.10;;;16.90;99.90;;;;;;5076490;28;20024;-84
2023/03/15 09:03:00;;;;;;;15.35;2.50;;;16.60;99.90;;;;;;5076215;28;20028;-81
2023/03/15 09:05:26;;;;;;;19.02;3.10;;;16.70;99.90;;;;;;5077452;28;20376;-81
2023/03/15 09:07:52;;;;;;;15.27;3.10;;;16.80;99.90;;;;;;5076752;28;20071;-77
2023/03/15 09:10:21;;;;;;;15.43;3.10;;;17.00;99.90;;;;;;5075606;28;20378;-84
2023/03/15 09:12:51;;;;;;;20.73;2.92;;;17.20;99.90;;;;;;5075445;28;20085;-76
2023/03/15 09:15:20;;;;;;;17.15;3.15;;;17.30;99.90;;;;;;5057683;28;20179;-81
2023/03/15 09:18:10;;;;;;;14.25;2.72;;;17.50;99.90;;;;;;5075567;28;20024;-82
2023/03/15 09:20:58;;;;;;;15.95;2.50;;;17.20;99.90;;;;;;5076503;28;20047;-82
2023/03/15 09:23:26;;;;;;;14.98;2.72;;;17.20;99.90;;;;;;5075550;28;20036;-84
2023/03/15 09:25:57;;;;;;;13.52;2.60;;;17.30;99.90;;;;;;5057461;28;20040;-84
2023/03/15 09:28:25;;;;;;;18.23;2.75;;;17.40;99.90;;;;;;5057128;28;20143;-81
2023/03/15 09:30:57;;;;;;;13.98;2.70;;;17.10;99.90;;;;;;5075282;28;20080;-82
2023/03/15 09:33:26;;;;;;;18.83;2.90;;;17.20;99.90;;;;;;5075101;28;20036;-81
2023/03/15 09:35:56;;;;;;;14.63;2.60;;;17.20;99.90;;;;;;5041219;28;20036;-81
2023/03/15 09:38:28;;;;;;;12.90;2.33;;;17.00;99.90;;;;;;5075465;28;20021;-81
2023/03/15 09:41:00;;;;;;;9.55;2.00;;;17.20;99.90;;;;;;5076118;28;20032;-81
2023/03/15 09:44:04;;;;;;;13.55;2.30;;;17.30;99.90;;;;;;5056150;28;20033;-81
2023/03/15 09:46:42;;;;;;;10.65;2.30;;;17.30;99.90;;;;;;5043027;28;20036;-81
2023/03/15 09:49:51;;;;;;;12.05;1.92;;;17.80;99.90;;;;;;5074986;28;20067;-81
2023/03/15 09:52:45;;;;;;;10.70;2.30;;;17.70;99.90;;;;;;5066341;22;20068;-79
2023/03/15 09:55:26;;;;;;;11.07;2.00;;;17.70;99.90;;;;;;5054985;28;20358;-81
2023/03/15 09:58:34;;;;;;;15.32;2.15;;;17.60;99.90;;;;;;5054283;28;20370;-80
2023/03/15 10:01:13;;;;;;;18.38;2.55;;;17.50;99.90;;;;;;4994652;28;20065;-82
2023/03/15 10:03:50;;;;;;;15.57;2.28;;;17.70;99.90;;;;;;4994622;28;20027;-81
2023/03/15 10:06:33;;;;;;;9.88;2.17;;;17.60;99.90;;;;;;4994429;28;20030;-83
2023/03/15 10:09:23;;;;;;;12.45;2.92;;;17.30;99.90;;;;;;5042158;22;20057;-82
2023/03/15 10:12:22;;;;;;;15.35;3.25;;;17.50;99.90;;;;;;5072424;28;20473;-82
2023/03/15 10:15:19;;;;;;;14.30;2.42;;;17.50;99.90;;;;;;5071894;28;20140;-82
2023/03/15 10:17:59;;;;;;;12.85;2.28;;;17.60;99.90;;;;;;5075341;28;20021;-85
2023/03/15 10:20:33;;;;;;;13.30;2.65;;;17.60;99.90;;;;;;5075263;28;20032;-81
2023/03/15 10:23:17;;;;;;;12.55;2.17;;;17.80;99.90;;;;;;5074913;28;20028;-83
2023/03/15 10:25:45;;;;;;;10.10;2.13;;;17.50;99.90;;;;;;5074551;28;20384;-82
2023/03/15 10:28:36;;;;;;;13.27;1.80;;;17.80;99.90;;;;;;5074347;28;20020;-80
2023/03/15 10:31:12;;;;;;;17.67;2.75;;;17.30;99.90;;;;;;5074558;28;20078;-82
2023/03/15 10:33:39;;;;;;;;;;;17.30;99.90;;;;;;5055026;28;20036;-81
2023/03/15 10:36:24;;;;;;;13.52;2.15;;;17.60;99.90;;;;;;5083095;28;20440;-83
2023/03/15 10:38:57;;;;;;;13.68;3.03;;;17.50;99.90;;;;;;5037235;28;20028;-81
2023/03/15 10:41:38;;;;;;;11.15;2.88;;;17.30;99.90;;;;;;5054238;28;20025;-82
2023/03/15 10:44:12;;;;;;;17.20;2.58;;;17.30;99.90;;;;;;5053945;28;20163;-76
2023/03/15 10:46:38;;;;;;;20.33;3.58;;;17.60;99.90;;;;;;5054519;28;20032;-82
2023/03/15 10:49:17;;;;;;;10.25;2.20;;;17.90;99.90;;;;;;5053917;28;20025;-83
2023/03/15 10:51:49;;;;;;;23.00;3.38;;;17.70;99.90;;;;;;5053978;28;20032;-81
2023/03/15 10:54:22;;;;;;;22.20;2.65;;;17.70;99.90;;;;;;5053987;28;20041;-84
2023/03/15 10:57:27;;;;;;;15.80;2.38;;;17.70;99.90;;;;;;5082479;28;20020;-81
2023/03/15 11:00:06;;;;;;;13.40;2.63;;;17.60;99.90;;;;;;5032266;28;20030;-82
2023/03/15 11:03:11;;;;;;;19.45;3.13;;;17.40;99.90;;;;;;5032103;28;20120;-82
2023/03/15 11:05:52;;;;;;;10.80;2.70;;;17.90;99.90;;;;;;5032472;28;20201;-78
2023/03/15 11:08:44;;;;;;;12.02;2.70;;;18.20;99.90;;;;;;5014548;28;20038;-83
2023/03/15 11:11:14;;;;;;;14.98;2.58;;;18.60;99.90;;;;;;5012237;28;20495;-81
2023/03/15 11:14:14;;;;;;;11.90;2.33;;;18.40;99.90;;;;;;5012488;28;20113;-85
2023/03/15 11:16:40;;;;;;;11.35;2.50;;;18.20;99.90;;;;;;4998465;28;20109;-82
2023/03/15 11:19:18;;;;;;;11.20;1.98;;;18.10;99.90;;;;;;5011736;28;20041;-82
2023/03/15 11:21:48;;;;;;;16.38;2.78;;;18.20;99.90;;;;;;5011028;28;20140;-82
2023/03/15 11:24:29;;;;;;;15.02;2.53;;;18.30;99.90;;;;;;5011159;28;20034;-83
2023/03/15 11:27:03;;;;;;;15.35;2.53;;;18.30;99.90;;;;;;5012114;28;20029;-81
2023/03/15 11:29:37;;;;;;;12.70;2.80;;;18.10;99.90;;;;;;5011592;28;20034;-82
2023/03/15 11:32:24;;;;;;;12.23;2.40;;;18.00;99.90;;;;;;5011153;28;20022;-82
2023/03/15 11:34:59;;;;;;;12.95;2.30;;;17.80;99.90;;;;;;5047092;28;20048;-82
2023/03/15 11:37:38;;;;;;;16.88;2.58;;;18.00;99.90;;;;;;5062446;28;20422;-82
2023/03/15 11:40:35;;;;;;;18.85;2.58;;;18.10;99.90;;;;;;5072745;28;20024;-83
2023/03/15 11:43:18;;;;;;;11.98;2.47;;;18.20;99.90;;;;;;5073213;28;20021;-82
2023/03/15 11:45:50;;;;;;;17.33;2.45;;;18.30;99.90;;;;;;5074938;28;20021;-82
2023/03/15 11:48:41;;;;;;;19.67;2.40;;;18.40;99.90;;;;;;5072610;28;20055;-84
2023/03/15 11:51:10;;;;;;;11.98;2.42;;;18.50;99.90;;;;;;5044560;28;20349;-83
2023/03/15 11:54:10;;;;;;;9.68;1.98;;;18.60;99.90;;;;;;5072442;28;20133;-83
2023/03/15 11:56:48;;;;;;;15.80;2.60;;;18.60;99.90;;;;;;5072927;28;20044;-80
2023/03/15 11:59:17;;;;;;;14.48;2.65;;;18.60;99.90;;;;;;5072002;28;20032;-83
2023/03/15 12:01:57;;;;;;;12.07;2.38;;;18.70;99.90;;;;;;5072550;28;20469;-82
2023/03/15 12:04:37;;;;;;;8.57;2.33;;;18.60;99.90;;;;;;5066509;22;20141;-80
2023/03/15 12:07:22;;;;;;;15.15;2.05;;;18.70;99.90;;;;;;5051871;28;20444;-82
2023/03/15 12:10:30;;;;;;;13.18;2.78;;;18.20;99.90;;;;;;5052470;28;20107;-83
2023/03/15 12:13:05;;;;;;;16.63;2.25;;;18.40;99.90;;;;;;5050658;28;20039;-82
2023/03/15 12:15:42;;;;;;;12.00;2.65;;;18.30;99.90;;;;;;5052380;28;20025;-80
2023/03/15 12:18:30;;;;;;;16.75;3.47;;;18.60;99.90;;;;;;5052944;28;20496;-82
2023/03/15 12:21:21;;;;;;;16.23;2.33;;;18.60;99.90;;;;;;5052992;28;20036;-81
2023/03/15 12:24:02;;;;;;;10.75;2.13;;;18.40;99.90;;;;;;5052084;28;20025;-80
2023/03/15 12:26:58;;;;;;;11.05;2.38;;;18.50;99.90;;;;;;5052965;28;20033;-81
2023/03/15 12:29:31;;;;;;;17.17;3.50;;;18.60;99.90;;;;;;5052486;28;20025;-82
2023/03/15 12:32:06;;;;;;;10.57;2.17;;;18.60;99.90;;;;;;5053005;28;20040;-79
2023/03/15 12:34:51;;;;;;;23.55;3.00;;;18.60;99.90;;;;;;5051124;28;20201;-80
2023/03/15 12:37:20;;;;;;;17.45;2.83;;;18.60;99.90;;;;;;5052966;28;20491;-78
2023/03/15 12:39:50;;;;;;;10.35;2.15;;;18.70;99.90;;;;;;5052749;28;20111;-79
2023/03/15 12:42:42;;;;;;;9.63;2.50;;;18.80;99.90;;;;;;5052407;28;20094;-79
2023/03/15 12:45:17;;;;;;;12.27;2.38;;;18.70;99.90;;;;;;5052890;28;20033;-77
2023/03/15 12:48:11;;;;;;;13.60;2.78;;;18.60;99.90;;;;;;5052495;28;20021;-75
2023/03/15 12:50:43;;;;;;;8.82;2.10;;;18.70;99.90;;;;;;5051433;28;20052;-76
2023/03/15 12:53:37;;;;;;;15.38;2.80;;;18.80;99.90;;;;;;5052140;28;20376;-77
2023/03/15 12:56:18;;;;;;;12.73;2.35;;;18.60;99.90;;;;;;5044366;28;20036;-77
2023/03/15 12:59:24;;;;;;;11.50;2.55;;;18.90;99.90;;;;;;5051880;28;20436;-78
2023/03/15 13:01:50;;;;;;;10.20;2.17;;;18.80;99.90;;;;;;5051948;28;20094;-77
2023/03/15 13:04:16;;;;;;;;;;;18.70;99.90;;;;;;5051967;28;20519;-80
2023/03/15 13:06:48;;;;;;;9.38;2.00;;;18.80;99.90;;;;;;5054579;28;19905;-78
2023/03/15 13:09:40;;;;;;;11.23;2.53;;;18.80;99.90;;;;;;5052609;28;20013;-77